Time;durP1;ratioP1;P1;durP2;ratioP2;P2;SDS_P1;SDS_P2;PMS_P1;PMS_P2;Temp;Humidity;BMP_temperature;BMP_pressure;BME280_temperature;BME280_humidity;BME280_pressure;Samples;Min_cycle;Max_cycle;Signal;HPM_P1;HPM_P2
2021/07/09 00:01:35;;;;;;;11.35;7.82;;;25.50;92.90;;;;;;5034825;28;20036;-59
2021/07/09 00:04:00;;;;;;;10.70;8.55;;;25.50;93.10;;;;;;5006863;28;20124;-63
2021/07/09 00:06:26;;;;;;;12.45;7.70;;;25.50;93.10;;;;;;5017162;28;20046;-58
2021/07/09 00:08:52;;;;;;;10.60;7.95;;;25.40;93.10;;;;;;4995779;28;20069;-58
2021/07/09 00:11:18;;;;;;;10.90;8.65;;;25.40;93.20;;;;;;4984577;28;20046;-64
2021/07/09 00:13:44;;;;;;;12.38;8.48;;;25.30;93.30;;;;;;5035697;28;20029;-62
2021/07/09 00:16:12;;;;;;;11.00;8.52;;;25.30;93.40;;;;;;5036545;28;20043;-62
2021/07/09 00:18:38;;;;;;;11.88;8.13;;;25.30;93.50;;;;;;5037340;28;20112;-58
2021/07/09 00:21:04;;;;;;;12.43;8.63;;;25.30;93.70;;;;;;5034613;28;20070;-59
2021/07/09 00:23:31;;;;;;;11.52;7.72;;;25.30;93.90;;;;;;5034134;28;20075;-63
2021/07/09 00:25:58;;;;;;;9.23;7.43;;;25.10;94.10;;;;;;4970582;28;20037;-68
2021/07/09 00:28:24;;;;;;;9.52;8.02;;;25.10;94.40;;;;;;5037615;28;20103;-60
2021/07/09 00:30:50;;;;;;;13.93;9.20;;;25.00;94.60;;;;;;5030047;28;20527;-59
2021/07/09 00:33:16;;;;;;;10.30;8.40;;;24.90;95.00;;;;;;4947454;28;20046;-62
2021/07/09 00:35:42;;;;;;;11.48;8.63;;;24.90;95.20;;;;;;5041959;28;20063;-64
2021/07/09 00:38:07;;;;;;;10.15;8.85;;;24.70;95.40;;;;;;4984240;28;20042;-66
2021/07/09 00:40:33;;;;;;;10.15;9.07;;;24.70;95.90;;;;;;5034567;28;20114;-60
2021/07/09 00:42:59;;;;;;;11.50;9.00;;;24.70;96.20;;;;;;5000828;28;20951;-63
2021/07/09 00:45:25;;;;;;;9.80;8.00;;;24.60;96.50;;;;;;4947760;28;20037;-65
2021/07/09 00:47:51;;;;;;;14.40;8.52;;;24.60;96.70;;;;;;5036748;28;20052;-62
2021/07/09 00:50:18;;;;;;;10.57;9.30;;;24.50;97.20;;;;;;5042333;28;20064;-64
2021/07/09 00:52:44;;;;;;;12.18;8.65;;;24.40;97.40;;;;;;5034142;28;20472;-62
2021/07/09 00:55:13;;;;;;;11.13;9.20;;;24.40;97.70;;;;;;5033484;28;20032;-61
2021/07/09 00:57:42;;;;;;;9.73;8.73;;;24.30;97.90;;;;;;5002987;28;20451;-60
2021/07/09 01:00:10;;;;;;;12.82;9.35;;;24.30;98.20;;;;;;5036576;28;20087;-63
2021/07/09 01:02:37;;;;;;;11.07;8.80;;;24.30;98.50;;;;;;4985733;28;20816;-65
2021/07/09 01:05:08;;;;;;;13.38;8.27;;;24.30;98.80;;;;;;4998664;28;20052;-60
2021/07/09 01:07:35;;;;;;;12.07;8.23;;;24.20;99.00;;;;;;4973469;28;20041;-63
2021/07/09 01:10:02;;;;;;;10.82;8.70;;;24.20;99.50;;;;;;5001019;28;20071;-59
2021/07/09 01:12:28;;;;;;;11.80;8.70;;;24.10;99.80;;;;;;4991661;28;20047;-62
2021/07/09 01:14:55;;;;;;;11.75;8.25;;;24.10;99.90;;;;;;4969402;28;20034;-63
2021/07/09 01:17:21;;;;;;;15.35;9.18;;;24.00;99.90;;;;;;4989236;28;20076;-61
2021/07/09 01:19:47;;;;;;;11.70;9.57;;;24.10;99.90;;;;;;4987107;28;20476;-60
2021/07/09 01:22:13;;;;;;;12.85;9.35;;;24.00;99.90;;;;;;5038238;28;20033;-57
2021/07/09 01:24:39;;;;;;;13.57;8.95;;;23.90;99.90;;;;;;5031147;28;20035;-56
2021/07/09 01:27:06;;;;;;;13.68;9.43;;;23.90;99.90;;;;;;5029431;28;20028;-56
2021/07/09 01:29:32;;;;;;;11.25;9.55;;;23.90;99.90;;;;;;5032633;28;20091;-61
2021/07/09 01:31:59;;;;;;;9.50;8.40;;;23.80;99.90;;;;;;5030738;28;20022;-60
2021/07/09 01:34:25;;;;;;;10.23;9.18;;;23.80;99.90;;;;;;5036500;28;20026;-60
2021/07/09 01:36:51;;;;;;;13.45;9.85;;;23.80;99.90;;;;;;5035066;28;21766;-63
2021/07/09 01:39:18;;;;;;;14.15;9.85;;;23.80;99.90;;;;;;5037275;28;20104;-66
2021/07/09 01:41:44;;;;;;;11.57;9.48;;;23.80;99.90;;;;;;5028830;28;20037;-59
2021/07/09 01:44:10;;;;;;;12.20;9.00;;;23.80;99.90;;;;;;5034360;28;20037;-59
2021/07/09 01:46:37;;;;;;;14.95;9.75;;;23.70;99.90;;;;;;4954077;28;20057;-60
2021/07/09 01:49:03;;;;;;;16.05;9.32;;;23.70;99.90;;;;;;5037539;28;20130;-63
2021/07/09 01:51:30;;;;;;;13.55;8.82;;;23.60;99.90;;;;;;5017265;28;20051;-64
2021/07/09 01:53:55;;;;;;;10.90;9.32;;;23.50;99.90;;;;;;5030423;28;20072;-59
2021/07/09 01:56:21;;;;;;;10.77;9.40;;;23.50;99.90;;;;;;5031874;28;20462;-60
2021/07/09 01:58:47;;;;;;;11.50;9.70;;;23.50;99.90;;;;;;4977231;28;20049;-60
2021/07/09 02:01:13;;;;;;;14.07;10.65;;;23.50;99.90;;;;;;5033093;28;20096;-61
2021/07/09 02:03:38;;;;;;;11.35;9.43;;;23.40;99.90;;;;;;5034453;28;20036;-59
2021/07/09 02:06:04;;;;;;;11.98;10.45;;;23.40;99.90;;;;;;5037459;28;20053;-56
2021/07/09 02:08:30;;;;;;;12.35;10.02;;;23.40;99.90;;;;;;5033347;28;20037;-60
2021/07/09 02:10:56;;;;;;;14.30;9.82;;;23.40;99.90;;;;;;5034832;28;20374;-63
2021/07/09 02:13:22;;;;;;;12.77;9.70;;;23.40;99.90;;;;;;5028957;28;20029;-59
2021/07/09 02:15:48;;;;;;;11.35;10.15;;;23.40;99.90;;;;;;4987319;28;20084;-62
2021/07/09 02:18:16;;;;;;;11.43;9.52;;;23.40;99.90;;;;;;5029218;28;20495;-65
2021/07/09 02:20:42;;;;;;;10.73;9.63;;;23.30;99.90;;;;;;5031071;28;20472;-62
2021/07/09 02:23:12;;;;;;;11.30;10.15;;;23.40;99.90;;;;;;5032251;28;20041;-62
2021/07/09 02:25:39;;;;;;;13.25;10.00;;;23.40;99.90;;;;;;5034814;28;20036;-61
2021/07/09 02:28:05;;;;;;;13.15;9.82;;;23.40;99.90;;;;;;5036450;28;20033;-64
2021/07/09 02:30:31;;;;;;;15.60;9.13;;;23.40;99.90;;;;;;5031212;28;20461;-60
2021/07/09 02:32:58;;;;;;;11.10;9.90;;;23.50;99.90;;;;;;4983326;28;20124;-64
2021/07/09 02:35:26;;;;;;;15.18;10.23;;;23.50;99.90;;;;;;5033722;28;20029;-63
2021/07/09 02:37:53;;;;;;;10.15;9.18;;;23.50;99.90;;;;;;5037851;28;20427;-65
2021/07/09 02:40:22;;;;;;;12.65;10.50;;;23.50;99.90;;;;;;5035210;28;20091;-61
2021/07/09 02:42:50;;;;;;;11.70;10.45;;;23.60;99.90;;;;;;5032748;28;20096;-65
2021/07/09 02:45:18;;;;;;;13.52;9.98;;;23.60;99.90;;;;;;5034001;28;20032;-60
2021/07/09 02:47:44;;;;;;;11.50;9.55;;;23.70;99.90;;;;;;5027428;28;20032;-56
2021/07/09 02:50:14;;;;;;;14.85;10.10;;;23.70;99.90;;;;;;5035259;28;20044;-67
2021/07/09 02:52:40;;;;;;;12.32;9.65;;;23.70;99.90;;;;;;5036683;28;20029;-62
2021/07/09 02:55:09;;;;;;;9.95;8.95;;;23.70;99.90;;;;;;4935858;28;20045;-63
2021/07/09 02:57:35;;;;;;;11.73;9.77;;;23.70;99.90;;;;;;4964186;28;20053;-58
2021/07/09 03:00:04;;;;;;;11.75;9.57;;;23.70;99.90;;;;;;5034334;28;20049;-65
2021/07/09 03:02:29;;;;;;;13.48;9.20;;;23.70;99.90;;;;;;5029274;28;20476;-57
2021/07/09 03:04:55;;;;;;;14.68;10.52;;;23.70;99.90;;;;;;5037026;28;20049;-64
2021/07/09 03:07:21;;;;;;;11.73;9.88;;;23.70;99.90;;;;;;5036541;28;20037;-65
2021/07/09 03:09:47;;;;;;;11.48;10.10;;;23.80;99.90;;;;;;5031185;28;20030;-60
2021/07/09 03:12:12;;;;;;;11.40;9.63;;;23.80;99.90;;;;;;5036296;28;20104;-56
2021/07/09 03:14:40;;;;;;;12.75;9.52;;;23.80;99.90;;;;;;5031906;28;20035;-59
2021/07/09 03:17:05;;;;;;;12.57;9.50;;;23.90;99.90;;;;;;5032262;28;20068;-61
2021/07/09 03:19:31;;;;;;;11.88;9.20;;;23.90;99.90;;;;;;5032416;28;20452;-61
2021/07/09 03:21:57;;;;;;;12.77;9.45;;;24.00;99.90;;;;;;4982208;28;20392;-58
2021/07/09 03:24:23;;;;;;;12.43;9.40;;;24.00;99.90;;;;;;5035522;28;20028;-61
2021/07/09 03:26:48;;;;;;;11.50;9.60;;;24.00;99.90;;;;;;4950796;28;20030;-55
2021/07/09 03:29:14;;;;;;;12.73;9.48;;;24.00;99.90;;;;;;4999330;28;20041;-62
2021/07/09 03:31:40;;;;;;;10.25;9.05;;;24.00;99.90;;;;;;4997528;28;20037;-56
2021/07/09 03:34:05;;;;;;;12.68;9.50;;;24.10;99.90;;;;;;5034395;28;20054;-61
2021/07/09 03:36:31;;;;;;;12.77;9.82;;;24.10;99.90;;;;;;5028653;28;20033;-55
2021/07/09 03:38:58;;;;;;;10.60;9.50;;;24.10;99.90;;;;;;5032642;28;20072;-57
2021/07/09 03:41:25;;;;;;;12.65;9.40;;;24.10;99.90;;;;;;5017233;28;20043;-61
2021/07/09 03:43:51;;;;;;;16.52;9.15;;;24.10;99.90;;;;;;5035831;28;20037;-56
2021/07/09 03:46:17;;;;;;;13.65;9.30;;;24.20;99.90;;;;;;5029225;28;20038;-58
2021/07/09 03:48:43;;;;;;;9.75;8.75;;;24.20;99.90;;;;;;5016041;28;20045;-64
2021/07/09 03:51:09;;;;;;;12.02;9.63;;;24.20;99.90;;;;;;5037529;28;20111;-64
2021/07/09 03:53:36;;;;;;;10.55;9.43;;;24.30;99.90;;;;;;5033633;28;20122;-59
2021/07/09 03:56:02;;;;;;;11.88;8.98;;;24.40;99.90;;;;;;5032257;28;20045;-63
2021/07/09 03:58:31;;;;;;;15.40;9.93;;;24.30;99.90;;;;;;5036453;28;20199;-58
2021/07/09 04:00:57;;;;;;;12.52;8.93;;;24.40;99.90;;;;;;4997918;28;20073;-59
2021/07/09 04:03:23;;;;;;;9.82;8.82;;;24.50;99.90;;;;;;5036276;28;20104;-61
2021/07/09 04:05:49;;;;;;;11.48;9.68;;;24.50;99.90;;;;;;5031684;28;20046;-60
2021/07/09 04:08:15;;;;;;;13.98;9.50;;;24.50;99.90;;;;;;5030610;28;20099;-63
2021/07/09 04:10:41;;;;;;;11.88;8.65;;;24.50;99.90;;;;;;5030685;28;20068;-61
2021/07/09 04:13:07;;;;;;;13.82;9.75;;;24.60;99.90;;;;;;5031963;28;20021;-61
2021/07/09 04:15:33;;;;;;;10.48;9.30;;;24.60;99.90;;;;;;4981212;28;20029;-64
2021/07/09 04:17:58;;;;;;;11.18;9.35;;;24.60;99.90;;;;;;5009796;28;20091;-63
2021/07/09 04:20:24;;;;;;;10.27;9.18;;;24.60;99.90;;;;;;4955336;28;20127;-67
2021/07/09 04:22:53;;;;;;;10.77;8.95;;;24.70;99.90;;;;;;5002129;28;20361;-58
2021/07/09 04:25:19;;;;;;;13.15;9.10;;;24.70;99.90;;;;;;5029075;28;20541;-59
2021/07/09 04:27:45;;;;;;;14.20;9.10;;;24.80;99.90;;;;;;5040133;28;20021;-63
2021/07/09 04:30:11;;;;;;;12.32;9.88;;;24.80;99.90;;;;;;5040708;28;20036;-63
2021/07/09 04:32:37;;;;;;;9.73;8.68;;;24.80;99.90;;;;;;4996534;28;20537;-60
2021/07/09 04:35:04;;;;;;;14.50;9.02;;;24.90;99.90;;;;;;5031979;28;20032;-57
2021/07/09 04:37:30;;;;;;;10.35;9.23;;;25.00;99.90;;;;;;4968397;28;20471;-63
2021/07/09 04:39:56;;;;;;;11.00;8.85;;;25.00;99.90;;;;;;5034857;28;20159;-60
2021/07/09 04:42:22;;;;;;;10.70;9.60;;;25.10;99.90;;;;;;5036077;28;20109;-60
2021/07/09 04:44:48;;;;;;;14.77;9.38;;;25.20;99.90;;;;;;5038257;28;20120;-62
2021/07/09 04:47:14;;;;;;;9.98;8.88;;;;;;;;;;5032296;28;20026;-61
2021/07/09 04:49:40;;;;;;;10.20;8.60;;;25.40;99.90;;;;;;4997247;28;20497;-59
2021/07/09 04:52:06;;;;;;;10.00;8.82;;;25.50;99.90;;;;;;5033947;28;20030;-64
2021/07/09 04:54:32;;;;;;;10.77;9.32;;;25.50;99.90;;;;;;4956324;28;20043;-62
2021/07/09 04:56:58;;;;;;;12.27;8.85;;;25.60;99.90;;;;;;5031646;28;20033;-59
2021/07/09 04:59:24;;;;;;;11.23;9.10;;;25.70;99.90;;;;;;5035233;28;20350;-62
2021/07/09 05:01:49;;;;;;;13.98;10.20;;;25.80;99.90;;;;;;5034057;28;20488;-60
2021/07/09 05:04:15;;;;;;;9.80;8.73;;;25.80;99.90;;;;;;5034896;28;20109;-65
2021/07/09 05:06:41;;;;;;;11.38;9.00;;;26.00;99.90;;;;;;5011591;28;20029;-66
2021/07/09 05:09:07;;;;;;;11.73;9.23;;;26.10;99.30;;;;;;5032219;28;20025;-58
2021/07/09 05:11:34;;;;;;;11.00;8.52;;;26.10;99.20;;;;;;5031318;28;20030;-64
2021/07/09 05:14:01;;;;;;;9.30;8.30;;;26.20;98.90;;;;;;5036767;28;20045;-64
2021/07/09 05:16:27;;;;;;;9.18;8.27;;;26.40;98.80;;;;;;5034867;28;20044;-63
2021/07/09 05:18:54;;;;;;;11.60;8.07;;;26.40;98.50;;;;;;4996843;28;20034;-67
2021/07/09 05:21:20;;;;;;;11.27;8.25;;;26.60;98.10;;;;;;5006736;28;20046;-64
2021/07/09 05:23:46;;;;;;;10.75;8.48;;;26.60;97.90;;;;;;5036851;28;20059;-60
2021/07/09 05:26:12;;;;;;;11.15;8.20;;;26.70;97.80;;;;;;5034297;28;20028;-61
2021/07/09 05:28:38;;;;;;;14.95;8.85;;;26.80;97.30;;;;;;5033469;28;20037;-61
2021/07/09 05:31:03;;;;;;;9.18;8.20;;;26.80;97.10;;;;;;5030414;28;20478;-64
2021/07/09 05:33:29;;;;;;;12.75;8.90;;;27.00;96.90;;;;;;5034770;28;20030;-65
2021/07/09 05:35:55;;;;;;;9.10;7.93;;;27.10;96.40;;;;;;5031942;28;20038;-61
2021/07/09 05:38:21;;;;;;;13.07;8.52;;;27.20;96.20;;;;;;5034621;28;20021;-64
2021/07/09 05:40:47;;;;;;;8.77;7.50;;;;;;;;;;5030302;28;20112;-58
2021/07/09 05:43:13;;;;;;;10.45;8.50;;;27.50;95.60;;;;;;5032769;28;20083;-67
2021/07/09 05:45:39;;;;;;;11.65;8.50;;;;;;;;;;4951250;28;20045;-56
2021/07/09 05:48:05;;;;;;;12.30;7.65;;;27.80;94.30;;;;;;5032428;28;20091;-64
2021/07/09 05:50:31;;;;;;;11.77;7.57;;;27.90;94.00;;;;;;4975298;28;20080;-59
2021/07/09 05:52:57;;;;;;;11.27;7.93;;;28.10;94.20;;;;;;4991849;28;20037;-62
2021/07/09 05:55:23;;;;;;;11.70;7.75;;;28.30;93.60;;;;;;4999493;28;20041;-60
2021/07/09 05:57:49;;;;;;;10.18;8.00;;;28.50;93.20;;;;;;4994334;28;20052;-60
2021/07/09 06:00:15;;;;;;;10.68;7.63;;;28.60;92.90;;;;;;5002881;28;20042;-64
2021/07/09 06:02:41;;;;;;;9.70;7.82;;;28.70;92.20;;;;;;5023754;28;20087;-56
2021/07/09 06:05:08;;;;;;;9.90;7.65;;;28.80;92.00;;;;;;4982224;28;20049;-58
2021/07/09 06:07:34;;;;;;;10.32;7.22;;;;;;;;;;5037122;28;20021;-57
2021/07/09 06:10:01;;;;;;;8.73;7.18;;;;;;;;;;5035369;28;20124;-62
2021/07/09 06:12:27;;;;;;;9.95;6.97;;;;;;;;;;5040497;28;20071;-56
2021/07/09 06:14:55;;;;;;;9.50;6.97;;;;;;;;;;5007631;28;20044;-55
2021/07/09 06:17:22;;;;;;;12.52;6.93;;;;;;;;;;5043087;28;20038;-62
2021/07/09 06:19:48;;;;;;;9.65;7.13;;;;;;;;;;5032979;28;20033;-58
2021/07/09 06:22:14;;;;;;;9.70;7.32;;;29.40;99.20;;;;;;5035101;28;20036;-63
2021/07/09 06:24:40;;;;;;;7.50;6.72;;;29.70;95.20;;;;;;5003553;28;20384;-57
2021/07/09 06:27:09;;;;;;;10.15;6.57;;;;;;;;;;5031400;28;20111;-60
2021/07/09 06:29:35;;;;;;;8.15;6.50;;;;;;;;;;4991646;28;20833;-64
2021/07/09 06:32:01;;;;;;;11.07;7.80;;;;;;;;;;5030163;28;20041;-63
2021/07/09 06:34:27;;;;;;;13.00;7.47;;;30.00;99.90;;;;;;5018798;28;20029;-66
2021/07/09 06:36:53;;;;;;;13.32;6.60;;;30.40;96.80;;;;;;5029827;28;20037;-60
2021/07/09 06:39:19;;;;;;;8.77;6.75;;;;;;;;;;5032222;28;20380;-64
2021/07/09 06:41:45;;;;;;;9.07;6.82;;;30.50;99.90;;;;;;5030156;28;20022;-62
2021/07/09 06:44:10;;;;;;;9.38;7.30;;;30.50;94.90;;;;;;5028551;28;20096;-60
2021/07/09 06:46:36;;;;;;;12.52;7.18;;;30.60;98.40;;;;;;5029982;28;20496;-63
2021/07/09 06:49:02;;;;;;;9.63;7.25;;;30.90;91.30;;;;;;5001427;28;20108;-62
2021/07/09 06:51:28;;;;;;;9.68;6.90;;;30.50;85.10;;;;;;5028201;28;20160;-61
2021/07/09 06:53:54;;;;;;;16.27;7.50;;;30.70;85.30;;;;;;4948884;28;20063;-67
2021/07/09 06:56:20;;;;;;;9.50;6.30;;;;;;;;;;5000407;28;20045;-61
2021/07/09 06:58:45;;;;;;;10.95;6.72;;;30.80;88.30;;;;;;4982665;28;20037;-61
2021/07/09 07:01:12;;;;;;;10.23;6.63;;;;;;;;;;4981614;28;20043;-56
2021/07/09 07:03:37;;;;;;;7.93;6.00;;;31.50;82.90;;;;;;4982692;28;20073;-64
2021/07/09 07:06:03;;;;;;;8.35;6.43;;;31.40;84.20;;;;;;4986220;28;20061;-61
2021/07/09 07:08:30;;;;;;;9.20;6.93;;;31.70;84.40;;;;;;4999863;28;20041;-56
2021/07/09 07:10:57;;;;;;;9.68;6.45;;;31.70;82.30;;;;;;5011428;28;20032;-64
2021/07/09 07:13:24;;;;;;;6.38;5.60;;;32.00;80.10;;;;;;4963140;28;20545;-62
2021/07/09 07:15:50;;;;;;;8.57;5.70;;;;;;;;;;5009801;28;20080;-59
2021/07/09 07:18:16;;;;;;;12.98;6.53;;;31.90;86.60;;;;;;5009677;28;20169;-61
2021/07/09 07:20:45;;;;;;;10.25;6.30;;;32.40;85.30;;;;;;5008309;28;20104;-59
2021/07/09 07:23:13;;;;;;;9.57;5.93;;;32.20;84.40;;;;;;4990105;28;20054;-60
2021/07/09 07:25:39;;;;;;;8.93;5.97;;;;;;;;;;4937617;29;20039;-64
2021/07/09 07:28:06;;;;;;;7.95;6.35;;;32.60;99.90;;;;;;4942117;29;20095;-57
2021/07/09 07:30:33;;;;;;;9.63;6.20;;;;;;;;;;4901699;29;20103;-63
2021/07/09 07:32:59;;;;;;;6.90;6.28;;;32.70;93.00;;;;;;4943175;29;20516;-65
2021/07/09 07:35:24;;;;;;;9.68;6.97;;;33.20;76.30;;;;;;4874261;29;20071;-68
2021/07/09 07:37:50;;;;;;;11.02;6.25;;;33.60;89.30;;;;;;4931897;29;20471;-57
2021/07/09 07:40:17;;;;;;;10.50;6.43;;;;;;;;;;4933214;29;20083;-61
2021/07/09 07:42:43;;;;;;;9.52;6.13;;;;;;;;;;4930497;29;20126;-64
2021/07/09 07:45:10;;;;;;;11.18;6.32;;;;;;;;;;4930667;29;20055;-59
2021/07/09 07:47:36;;;;;;;6.40;5.80;;;34.70;72.60;;;;;;4897065;29;20044;-62
2021/07/09 07:50:02;;;;;;;7.43;5.78;;;34.70;72.10;;;;;;4922780;29;20446;-63
2021/07/09 07:52:28;;;;;;;8.52;5.95;;;34.50;71.90;;;;;;4936279;29;20521;-59
2021/07/09 07:54:54;;;;;;;8.35;6.00;;;33.80;72.00;;;;;;4949783;28;20121;-62
2021/07/09 07:57:20;;;;;;;9.32;6.70;;;33.60;72.40;;;;;;5007992;28;20038;-59
2021/07/09 07:59:46;;;;;;;8.25;5.90;;;34.00;70.80;;;;;;5036624;28;20034;-55
2021/07/09 08:02:12;;;;;;;9.80;6.00;;;33.70;72.00;;;;;;4998385;28;20515;-62
2021/07/09 08:04:38;;;;;;;7.22;6.15;;;33.60;72.40;;;;;;5040120;28;20037;-56
2021/07/09 08:07:05;;;;;;;7.95;6.47;;;;;;;;;;5033692;28;20029;-63
2021/07/09 08:09:31;;;;;;;10.32;5.75;;;34.30;90.80;;;;;;5039963;28;20469;-59
2021/07/09 08:12:01;;;;;;;7.40;6.57;;;;;;;;;;5001672;28;20507;-57
2021/07/09 08:14:28;;;;;;;10.57;7.05;;;33.60;93.10;;;;;;5032626;28;20033;-62
2021/07/09 08:16:54;;;;;;;7.90;5.57;;;;;;;;;;5038126;28;20037;-58
2021/07/09 08:19:21;;;;;;;8.38;6.13;;;;;;;;;;5039815;28;20044;-60
2021/07/09 08:21:47;;;;;;;11.00;6.68;;;;;;;;;;5034046;28;20083;-62
2021/07/09 08:24:14;;;;;;;11.13;6.40;;;;;;;;;;5038804;28;20037;-58
2021/07/09 08:26:40;;;;;;;10.73;6.70;;;;;;;;;;5031739;28;20057;-58
2021/07/09 08:29:06;;;;;;;7.18;6.22;;;;;;;;;;5036427;28;20034;-59
2021/07/09 08:31:32;;;;;;;10.27;6.43;;;34.60;90.20;;;;;;5013028;28;20036;-59
2021/07/09 08:33:57;;;;;;;8.02;6.50;;;34.90;71.70;;;;;;4985179;28;20041;-58
2021/07/09 08:36:25;;;;;;;7.47;6.20;;;;;;;;;;5041661;28;20123;-59
2021/07/09 08:38:51;;;;;;;9.68;6.28;;;35.70;86.10;;;;;;5031347;28;20079;-58
2021/07/09 08:41:17;;;;;;;9.10;6.72;;;35.60;68.80;;;;;;5040312;28;20350;-62
2021/07/09 08:43:43;;;;;;;7.43;5.88;;;37.30;68.10;;;;;;5038255;28;20026;-62
2021/07/09 08:46:09;;;;;;;11.25;6.18;;;37.10;66.70;;;;;;5036889;28;20033;-58
2021/07/09 08:48:36;;;;;;;9.15;6.53;;;36.50;65.70;;;;;;4985925;28;20044;-61
2021/07/09 08:51:02;;;;;;;7.82;6.00;;;37.00;65.10;;;;;;5037281;28;20462;-59
2021/07/09 08:53:28;;;;;;;13.18;6.45;;;36.60;64.00;;;;;;4989757;28;20532;-58
2021/07/09 08:55:54;;;;;;;9.00;6.60;;;37.90;63.20;;;;;;5034132;28;20061;-61
2021/07/09 08:58:21;;;;;;;7.15;6.00;;;;;;;;;;5035566;28;20496;-60
2021/07/09 09:00:46;;;;;;;8.10;6.15;;;39.90;92.00;;;;;;5033703;28;20036;-58
2021/07/09 09:03:17;;;;;;;12.85;6.18;;;40.80;75.60;;;;;;4990467;28;20037;-61
2021/07/09 09:05:43;;;;;;;9.83;6.77;;;40.80;79.50;;;;;;5037150;28;20068;-60
2021/07/09 09:08:11;;;;;;;7.38;6.68;;;40.30;69.00;;;;;;5005533;28;20278;-58
2021/07/09 09:10:41;;;;;;;9.80;6.93;;;40.20;67.30;;;;;;5037276;28;20162;-58
2021/07/09 09:13:17;;;;;;;11.40;7.25;;;41.30;65.30;;;;;;5032330;28;20381;-59
2021/07/09 09:15:56;;;;;;;19.25;8.60;;;42.50;58.10;;;;;;5036904;28;20550;-60
2021/07/09 09:18:29;;;;;;;12.35;6.65;;;42.30;55.80;;;;;;5031985;28;20020;-59
2021/07/09 09:21:06;;;;;;;16.60;7.85;;;43.10;54.90;;;;;;4972140;28;20070;-60
2021/07/09 09:23:35;;;;;;;8.60;6.80;;;43.50;54.90;;;;;;4955100;28;20042;-64
2021/07/09 09:26:01;;;;;;;26.77;11.25;;;42.00;54.90;;;;;;4947979;29;20107;-59
2021/07/09 09:28:29;;;;;;;11.68;6.60;;;42.90;55.30;;;;;;4942537;29;20041;-59
2021/07/09 09:30:56;;;;;;;6.82;5.80;;;;;;;;;;4954407;29;20046;-62
2021/07/09 09:33:23;;;;;;;9.75;6.20;;;;;;;;;;4938979;29;20116;-64
2021/07/09 09:35:53;;;;;;;7.57;6.22;;;;;;;;;;4941196;29;20053;-59
2021/07/09 09:38:24;;;;;;;8.48;6.38;;;;;;;;;;4928286;29;20055;-59
2021/07/09 09:40:50;;;;;;;10.73;6.82;;;41.00;58.30;;;;;;4944715;29;20098;-61
2021/07/09 09:43:22;;;;;;;12.07;8.88;;;43.20;56.40;;;;;;4944838;28;20075;-59
2021/07/09 09:45:58;;;;;;;11.60;8.10;;;;;;;;;;4947370;29;20430;-61
2021/07/09 09:48:33;;;;;;;8.68;6.32;;;;;;;;;;4910571;29;20102;-61
2021/07/09 09:50:59;;;;;;;10.50;6.75;;;45.20;85.40;;;;;;4938909;28;20085;-62
2021/07/09 09:53:35;;;;;;;7.93;6.10;;;;;;;;;;4987765;28;20070;-57
2021/07/09 09:56:06;;;;;;;7.35;6.60;;;;;;;;;;4985321;28;20054;-61
2021/07/09 09:58:32;;;;;;;;;;;;;;;;;;4992497;28;20078;-60
2021/07/09 10:00:58;;;;;;;9.48;5.82;;;;;;;;;;4994660;28;19917;-64
2021/07/09 10:03:24;;;;;;;13.02;7.78;;;;;;;;;;5017104;28;20400;-57
2021/07/09 10:05:51;;;;;;;9.65;6.57;;;47.90;44.60;;;;;;5035482;28;20045;-57
2021/07/09 10:08:19;;;;;;;8.13;5.28;;;47.30;46.80;;;;;;5039312;28;20036;-61
2021/07/09 10:10:46;;;;;;;11.20;5.10;;;49.80;46.00;;;;;;5033867;28;20059;-60
2021/07/09 10:13:14;;;;;;;9.85;6.10;;;52.20;54.60;;;;;;5035405;28;20063;-64
2021/07/09 10:15:43;;;;;;;7.45;5.45;;;;;;;;;;5037347;28;20104;-60
2021/07/09 10:18:14;;;;;;;10.25;5.80;;;52.60;65.60;;;;;;5035095;28;20042;-56
2021/07/09 10:20:43;;;;;;;12.00;6.60;;;47.30;45.50;;;;;;5040741;28;20451;-59
2021/07/09 10:23:12;;;;;;;7.70;5.63;;;45.70;60.80;;;;;;5037713;28;20091;-60
2021/07/09 10:25:39;;;;;;;10.48;6.32;;;44.60;48.70;;;;;;5034100;28;20083;-59
2021/07/09 10:28:09;;;;;;;6.85;6.00;;;45.00;49.20;;;;;;5034743;28;20089;-60
2021/07/09 10:30:40;;;;;;;12.83;6.10;;;44.60;49.50;;;;;;5034267;28;20029;-60
2021/07/09 10:33:26;;;;;;;8.48;5.85;;;45.50;48.90;;;;;;5042822;28;20306;-59
2021/07/09 10:35:52;;;;;;;9.75;5.72;;;;;;;;;;5000280;28;20065;-62
2021/07/09 10:38:19;;;;;;;27.00;8.65;;;;;;;;;;5027569;28;20399;-62
2021/07/09 10:40:46;;;;;;;14.82;6.85;;;51.20;44.40;;;;;;5034331;28;20026;-57
2021/07/09 10:43:12;;;;;;;33.00;12.45;;;;;;;;;;5000912;28;20399;-58
2021/07/09 10:45:39;;;;;;;8.68;6.65;;;48.50;49.90;;;;;;5031736;28;20030;-58
2021/07/09 10:48:17;;;;;;;8.23;6.93;;;50.30;46.50;;;;;;5027620;28;20025;-62
2021/07/09 10:50:54;;;;;;;10.35;6.63;;;52.10;53.70;;;;;;4973194;28;20029;-63
2021/07/09 10:53:21;;;;;;;8.15;5.50;;;;;;;;;;4984123;28;20064;-58
2021/07/09 10:55:55;;;;;;;7.53;6.40;;;55.20;46.60;;;;;;5031725;28;20049;-60
2021/07/09 10:58:41;;;;;;;7.25;5.20;;;55.90;41.00;;;;;;5029261;28;20033;-59
2021/07/09 11:01:21;;;;;;;7.70;5.50;;;56.10;44.40;;;;;;5028401;28;20696;-59
2021/07/09 11:04:07;;;;;;;6.22;5.63;;;;;;;;;;5032251;28;20038;-63
2021/07/09 11:06:33;;;;;;;19.08;6.85;;;56.50;70.20;;;;;;5028538;28;20054;-59
2021/07/09 11:09:03;;;;;;;11.15;6.63;;;57.70;44.60;;;;;;5037489;28;20116;-60
2021/07/09 11:11:35;;;;;;;10.48;6.05;;;;;;;;;;5038331;28;20079;-60
2021/07/09 11:14:02;;;;;;;7.10;5.18;;;58.70;64.70;;;;;;5030595;28;20432;-59
2021/07/09 11:16:35;;;;;;;11.60;6.25;;;;;;;;;;5028635;28;20125;-59
2021/07/09 11:19:04;;;;;;;7.07;5.45;;;;;;;;;;5038236;28;20040;-64
2021/07/09 11:21:32;;;;;;;9.90;6.63;;;52.90;39.30;;;;;;5030505;28;20026;-62
2021/07/09 11:23:59;;;;;;;14.80;13.27;;;;;;;;;;5037269;28;20057;-64
2021/07/09 11:26:33;;;;;;;11.63;10.52;;;53.10;39.50;;;;;;5039447;28;20035;-59
2021/07/09 11:29:00;;;;;;;8.10;7.20;;;53.90;40.00;;;;;;5036989;28;20386;-60
2021/07/09 11:31:36;;;;;;;8.43;5.75;;;;;;;;;;5030240;28;20072;-59
2021/07/09 11:34:09;;;;;;;7.80;5.80;;;57.00;38.10;;;;;;5040167;28;20033;-58
2021/07/09 11:36:44;;;;;;;7.30;5.40;;;56.40;37.90;;;;;;5031358;28;20115;-60
2021/07/09 11:39:13;;;;;;;7.55;5.55;;;55.70;38.40;;;;;;5030687;28;20033;-58
2021/07/09 11:41:57;;;;;;;6.95;5.78;;;55.40;39.30;;;;;;5035670;28;20500;-63
2021/07/09 11:44:30;;;;;;;8.63;6.00;;;56.60;39.60;;;;;;5041438;28;20029;-62
2021/07/09 11:47:05;;;;;;;7.60;5.32;;;56.30;39.10;;;;;;5034791;28;20036;-64
2021/07/09 11:49:34;;;;;;;7.38;5.28;;;55.30;40.20;;;;;;5035403;28;20095;-62
2021/07/09 11:52:09;;;;;;;8.55;5.70;;;52.00;41.20;;;;;;5039542;28;20377;-65
2021/07/09 11:54:42;;;;;;;7.90;5.43;;;53.30;42.00;;;;;;5031773;28;20083;-65
2021/07/09 11:57:18;;;;;;;7.60;5.38;;;54.00;40.40;;;;;;5005768;28;20065;-61
2021/07/09 11:59:46;;;;;;;10.13;5.38;;;51.90;40.70;;;;;;5035904;28;20492;-63
2021/07/09 12:02:15;;;;;;;10.00;6.10;;;51.00;41.50;;;;;;5038468;28;20385;-58
2021/07/09 12:04:43;;;;;;;9.75;5.32;;;49.40;45.40;;;;;;5036148;28;20053;-57
2021/07/09 12:07:13;;;;;;;8.35;5.90;;;;;;;;;;5033071;28;20106;-59
2021/07/09 12:09:39;;;;;;;6.22;5.63;;;48.20;71.80;;;;;;5036650;28;20489;-63
2021/07/09 12:12:05;;;;;;;7.88;5.13;;;51.10;45.60;;;;;;5039122;28;20022;-61
2021/07/09 12:14:30;;;;;;;8.27;5.80;;;52.90;41.50;;;;;;4990180;28;20100;-62
2021/07/09 12:16:59;;;;;;;8.52;6.15;;;53.80;41.20;;;;;;4951939;28;20432;-61
2021/07/09 12:19:24;;;;;;;7.90;5.78;;;50.90;42.10;;;;;;4995469;28;20052;-59
2021/07/09 12:21:54;;;;;;;8.32;5.85;;;49.00;52.10;;;;;;4998853;28;20038;-62
2021/07/09 12:24:21;;;;;;;9.13;6.00;;;47.90;64.10;;;;;;5034776;28;20036;-61
2021/07/09 12:26:48;;;;;;;9.00;6.00;;;50.10;46.40;;;;;;5003980;28;20075;-61
2021/07/09 12:29:14;;;;;;;12.25;7.75;;;53.30;46.50;;;;;;5035242;28;20032;-59
2021/07/09 12:31:41;;;;;;;9.95;7.15;;;53.10;41.30;;;;;;4982725;28;20092;-60
2021/07/09 12:34:22;;;;;;;9.32;5.97;;;53.60;41.70;;;;;;5043688;28;20376;-63
2021/07/09 12:36:48;;;;;;;;;;;;;;;;;;5028493;28;20128;-63
2021/07/09 12:39:23;;;;;;;5.90;5.30;;;;;;;;;;5032698;28;20403;-63
2021/07/09 12:41:49;;;;;;;7.07;5.93;;;57.40;68.20;;;;;;5031058;28;20041;-60
2021/07/09 12:44:16;;;;;;;8.73;5.45;;;56.10;46.20;;;;;;5035834;28;20029;-62
2021/07/09 12:46:43;;;;;;;9.35;5.70;;;57.40;46.00;;;;;;5040360;28;20166;-63
2021/07/09 12:49:10;;;;;;;5.60;4.93;;;57.50;44.60;;;;;;5010488;28;20046;-62
2021/07/09 12:51:40;;;;;;;6.38;5.40;;;;;;;;;;5016798;28;20388;-61
2021/07/09 12:54:13;;;;;;;6.65;5.82;;;58.70;49.40;;;;;;5039287;28;20030;-60
2021/07/09 12:56:43;;;;;;;7.55;4.93;;;59.00;40.30;;;;;;5030595;28;20045;-60
2021/07/09 12:59:12;;;;;;;9.30;5.50;;;58.00;38.80;;;;;;5033095;28;20033;-60
2021/07/09 13:01:43;;;;;;;10.05;5.72;;;58.30;39.70;;;;;;5030833;28;20022;-59